createdAt,value
2023-10-07T00:01:35.232Z,75.49
2023-10-07T00:04:40.076Z,75.34
2023-10-07T00:07:45.410Z,75.21
2023-10-07T00:10:51.186Z,75.08
2023-10-07T00:13:57.155Z,75.00
2023-10-07T00:17:07.198Z,74.91
2023-10-07T00:20:12.343Z,74.80
2023-10-07T00:23:22.007Z,74.76
2023-10-07T00:26:27.936Z,74.74
2023-10-07T00:29:41.214Z,74.78
2023-10-07T00:32:46.714Z,74.74
2023-10-07T00:35:51.483Z,74.76
2023-10-07T00:38:55.699Z,74.75
2023-10-07T00:42:00.446Z,74.72
2023-10-07T00:45:14.702Z,74.70
2023-10-07T00:48:18.653Z,74.61
2023-10-07T00:51:34.768Z,74.58
2023-10-07T00:54:51.020Z,74.53
2023-10-07T00:58:05.773Z,74.45
2023-10-07T01:01:11.232Z,74.42
2023-10-07T01:04:17.407Z,74.48
2023-10-07T01:07:21.605Z,74.39
2023-10-07T01:10:29.236Z,74.33
2023-10-07T01:13:34.316Z,74.32
2023-10-07T01:16:45.403Z,74.21
2023-10-07T01:19:54.659Z,74.17
2023-10-07T01:23:05.629Z,74.12
2023-10-07T01:26:17.099Z,74.08
2023-10-07T01:29:22.247Z,74.03
2023-10-07T01:32:33.053Z,73.86
2023-10-07T01:35:40.860Z,73.73
2023-10-07T01:38:46.322Z,73.64
2023-10-07T01:41:50.820Z,73.50
2023-10-07T01:44:59.023Z,73.37
2023-10-07T01:48:08.704Z,73.29
2023-10-07T01:51:15.965Z,73.21
2023-10-07T01:54:21.192Z,73.33
2023-10-07T01:57:25.137Z,73.45
2023-10-07T02:00:44.858Z,73.41
2023-10-07T02:03:48.995Z,73.15
2023-10-07T02:06:53.402Z,73.01
2023-10-07T02:09:59.280Z,72.96
2023-10-07T02:13:03.866Z,73.08
2023-10-07T02:16:09.365Z,72.92
2023-10-07T02:19:16.217Z,72.77
2023-10-07T02:22:23.845Z,72.76
2023-10-07T02:25:30.778Z,72.79
2023-10-07T02:28:35.685Z,72.92
2023-10-07T02:31:44.854Z,72.80
2023-10-07T02:34:57.577Z,72.82
2023-10-07T02:38:04.770Z,72.86
2023-10-07T02:41:17.943Z,72.80
2023-10-07T02:44:28.913Z,72.74
2023-10-07T02:47:33.858Z,72.59
2023-10-07T02:50:41.045Z,72.48
2023-10-07T02:53:44.989Z,72.51
2023-10-07T02:56:56.044Z,72.51
2023-10-07T03:00:15.210Z,72.59
2023-10-07T03:03:34.517Z,72.71
2023-10-07T03:06:39.159Z,72.79
2023-10-07T03:09:53.023Z,72.84
2023-10-07T03:12:59.004Z,73.03
2023-10-07T03:16:29.272Z,73.31
2023-10-07T03:19:49.208Z,73.55
2023-10-07T03:23:11.683Z,73.67
2023-10-07T03:26:18.740Z,73.82
2023-10-07T03:29:32.246Z,73.89
2023-10-07T03:32:55.937Z,73.92
2023-10-07T03:36:15.737Z,73.99
2023-10-07T03:39:27.561Z,73.98
2023-10-07T03:42:31.844Z,73.84
2023-10-07T03:45:37.406Z,73.57
2023-10-07T03:48:42.274Z,73.32
2023-10-07T03:51:49.373Z,73.17
2023-10-07T03:54:55.202Z,72.97
2023-10-07T03:57:59.143Z,72.98
2023-10-07T04:01:13.098Z,73.14
2023-10-07T04:04:17.361Z,73.23
2023-10-07T04:07:21.321Z,73.16
2023-10-07T04:10:32.897Z,73.00
2023-10-07T04:13:38.116Z,72.81
2023-10-07T04:16:43.769Z,72.67
2023-10-07T04:19:54.096Z,72.72
2023-10-07T04:23:02.285Z,72.40
2023-10-07T04:26:12.940Z,72.00
2023-10-07T04:29:17.201Z,71.07
2023-10-07T04:32:23.571Z,70.77
2023-10-07T04:35:32.259Z,70.55
2023-10-07T04:38:53.934Z,70.07
2023-10-07T04:42:00.720Z,69.71
2023-10-07T04:45:22.521Z,68.80
2023-10-07T04:48:32.965Z,68.82
2023-10-07T04:51:49.226Z,68.62
2023-10-07T04:54:54.126Z,68.12
2023-10-07T04:58:01.009Z,68.20
2023-10-07T05:01:23.600Z,68.14
2023-10-07T05:04:29.755Z,67.91
2023-10-07T05:07:33.723Z,67.92
2023-10-07T05:10:40.037Z,67.99
2023-10-07T05:13:46.146Z,68.03
2023-10-07T05:16:50.562Z,68.23
2023-10-07T05:19:54.693Z,68.38
2023-10-07T05:23:01.893Z,68.32
2023-10-07T05:26:10.465Z,68.02
2023-10-07T05:29:16.309Z,67.95
2023-10-07T05:32:20.391Z,67.90
2023-10-07T05:35:24.636Z,67.93
2023-10-07T05:38:28.714Z,68.15
2023-10-07T05:41:33.476Z,68.46
2023-10-07T05:44:39.144Z,68.46
2023-10-07T05:47:46.507Z,68.69
2023-10-07T05:50:50.507Z,68.83
2023-10-07T05:53:54.496Z,68.29
2023-10-07T05:57:01.927Z,67.76
2023-10-07T06:00:11.139Z,67.45
2023-10-07T06:03:15.155Z,67.97
2023-10-07T06:06:19.098Z,68.59
2023-10-07T06:09:23.649Z,68.50
2023-10-07T06:12:29.580Z,68.03
2023-10-07T06:15:35.347Z,67.66
2023-10-07T06:18:40.742Z,67.80
2023-10-07T06:21:52.432Z,67.92
2023-10-07T06:25:02.301Z,68.00
2023-10-07T06:28:07.031Z,67.73
2023-10-07T06:31:14.264Z,67.05
2023-10-07T06:34:26.854Z,65.93
2023-10-07T06:37:31.307Z,65.60
2023-10-07T06:40:37.030Z,65.47
2023-10-07T06:43:43.876Z,65.50
2023-10-07T06:46:49.017Z,65.32
2023-10-07T06:49:57.403Z,65.16
2023-10-07T06:53:01.426Z,65.14
2023-10-07T06:56:05.635Z,64.81
2023-10-07T06:59:12.148Z,63.71
2023-10-07T07:02:20.223Z,63.62
2023-10-07T07:05:25.478Z,63.63
2023-10-07T07:08:29.449Z,62.90
2023-10-07T07:11:35.215Z,62.86
2023-10-07T07:14:43.225Z,62.50
2023-10-07T07:17:47.246Z,62.09
2023-10-07T07:20:56.279Z,62.50
2023-10-07T07:24:01.390Z,61.93
2023-10-07T07:27:05.360Z,61.62
2023-10-07T07:30:18.644Z,61.17
2023-10-07T07:33:29.954Z,61.31
2023-10-07T07:36:40.567Z,61.73
2023-10-07T07:39:49.011Z,62.10
2023-10-07T07:42:56.643Z,62.12
2023-10-07T07:46:30.566Z,62.97
2023-10-07T07:49:40.196Z,63.52
2023-10-07T07:52:44.189Z,63.42
2023-10-07T07:55:48.408Z,63.12
2023-10-07T07:58:54.217Z,62.89
2023-10-07T08:02:03.730Z,63.07
2023-10-07T08:05:09.377Z,63.38
2023-10-07T08:08:26.076Z,63.48
2023-10-07T08:11:36.422Z,63.06
2023-10-07T08:14:40.431Z,63.28
2023-10-07T08:17:46.316Z,63.28
2023-10-07T08:20:50.391Z,62.65
2023-10-07T08:23:54.335Z,62.07
2023-10-07T08:27:01.094Z,61.94
2023-10-07T08:30:08.152Z,61.81
2023-10-07T08:33:13.850Z,62.01
2023-10-07T08:36:19.052Z,61.35
2023-10-07T08:39:28.562Z,60.89
2023-10-07T08:42:33.341Z,61.15
2023-10-07T08:45:40.692Z,61.38
2023-10-07T08:48:51.038Z,61.79
2023-10-07T08:51:55.942Z,62.05
2023-10-07T08:55:01.408Z,61.36
2023-10-07T08:58:06.649Z,61.53
2023-10-07T09:01:18.527Z,61.53
2023-10-07T09:04:23.262Z,61.82
2023-10-07T09:07:32.552Z,62.33
2023-10-07T09:10:38.217Z,61.77
2023-10-07T09:13:43.795Z,61.83
2023-10-07T09:16:50.921Z,62.15
2023-10-07T09:20:00.045Z,62.49
2023-10-07T09:23:08.547Z,62.07
2023-10-07T09:26:23.511Z,62.67
2023-10-07T09:29:30.418Z,61.42
2023-10-07T09:32:34.728Z,61.55
2023-10-07T09:35:39.133Z,61.75
2023-10-07T09:38:43.941Z,62.16
2023-10-07T09:42:04.777Z,61.69
2023-10-07T09:45:18.820Z,61.75
2023-10-07T09:48:31.192Z,61.25
2023-10-07T09:51:42.888Z,61.36
2023-10-07T09:55:20.360Z,60.99
2023-10-07T09:58:38.052Z,61.21
2023-10-07T10:01:55.470Z,60.92
2023-10-07T10:05:13.596Z,60.39
2023-10-07T10:08:29.126Z,60.34
2023-10-07T10:11:45.389Z,60.28
2023-10-07T10:15:19.174Z,58.93
2023-10-07T10:18:40.340Z,58.40
2023-10-07T10:21:45.177Z,58.88
2023-10-07T10:24:49.079Z,59.62
2023-10-07T10:28:00.001Z,59.03
2023-10-07T10:31:08.433Z,59.48
2023-10-07T10:34:16.167Z,59.38
2023-10-07T10:37:21.751Z,59.30
2023-10-07T10:40:32.727Z,58.56
2023-10-07T10:43:36.687Z,59.50
2023-10-07T10:46:47.472Z,59.29
2023-10-07T10:49:56.346Z,58.72
2023-10-07T10:53:01.619Z,58.63
2023-10-07T10:56:07.073Z,58.83
2023-10-07T10:59:11.133Z,58.55
2023-10-07T11:02:18.925Z,58.81
2023-10-07T11:05:23.752Z,58.16
2023-10-07T11:08:28.210Z,59.10
2023-10-07T11:11:32.499Z,58.87
2023-10-07T11:14:37.042Z,58.07
2023-10-07T11:17:54.153Z,58.02
2023-10-07T11:20:58.134Z,55.57
2023-10-07T11:24:02.500Z,54.55
2023-10-07T11:27:10.033Z,55.69
2023-10-07T11:30:16.317Z,56.20
2023-10-07T11:33:21.291Z,55.50
2023-10-07T11:36:25.806Z,56.52
2023-10-07T11:39:31.166Z,55.63
2023-10-07T11:42:35.407Z,54.45
2023-10-07T11:45:41.367Z,55.04
2023-10-07T11:48:46.150Z,54.90
2023-10-07T11:51:50.256Z,54.66
2023-10-07T11:54:54.272Z,55.20
2023-10-07T11:57:59.983Z,54.90
2023-10-07T12:01:05.013Z,53.25
2023-10-07T12:04:10.009Z,53.74
2023-10-07T12:07:15.691Z,53.86
2023-10-07T12:10:21.145Z,53.88
2023-10-07T12:13:25.093Z,54.52
2023-10-07T12:16:30.452Z,55.37
2023-10-07T12:19:35.659Z,54.20
2023-10-07T12:22:40.269Z,52.13
2023-10-07T12:25:44.209Z,51.94
2023-10-07T12:28:50.381Z,52.88
2023-10-07T12:31:54.544Z,51.17
2023-10-07T12:34:59.881Z,51.31
2023-10-07T12:38:03.952Z,51.94
2023-10-07T12:41:08.933Z,52.31
2023-10-07T12:44:13.310Z,51.49
2023-10-07T12:47:18.237Z,52.17
2023-10-07T12:50:25.414Z,52.95
2023-10-07T12:53:29.816Z,52.89
2023-10-07T12:56:34.966Z,54.40
2023-10-07T12:59:39.246Z,53.52
2023-10-07T13:02:45.492Z,51.31
2023-10-07T13:05:49.659Z,52.33
2023-10-07T13:08:55.089Z,50.65
2023-10-07T13:11:59.913Z,50.98
2023-10-07T13:15:04.496Z,51.95
2023-10-07T13:18:10.481Z,52.82
2023-10-07T13:21:17.796Z,53.07
2023-10-07T13:24:21.801Z,51.19
2023-10-07T13:27:25.710Z,50.87
2023-10-07T13:30:31.528Z,52.02
2023-10-07T13:33:37.274Z,51.67
2023-10-07T13:36:43.666Z,51.58
2023-10-07T13:39:47.660Z,51.00
2023-10-07T13:42:52.691Z,51.01
2023-10-07T13:45:56.636Z,51.36
2023-10-07T13:49:01.430Z,52.46
2023-10-07T13:52:07.104Z,52.15
2023-10-07T13:55:23.326Z,51.59
2023-10-07T13:58:27.254Z,52.29
2023-10-07T14:01:31.310Z,52.92
2023-10-07T14:04:36.024Z,51.83
2023-10-07T14:07:40.888Z,51.76
2023-10-07T14:10:46.606Z,52.25
2023-10-07T14:13:50.603Z,52.46
2023-10-07T14:17:00.189Z,52.78
2023-10-07T14:20:07.502Z,53.61
2023-10-07T14:23:15.594Z,53.56
2023-10-07T14:26:20.921Z,52.77
2023-10-07T14:29:27.876Z,53.35
2023-10-07T14:32:32.396Z,53.18
2023-10-07T14:35:39.212Z,53.99
2023-10-07T14:38:43.657Z,53.47
2023-10-07T14:41:47.563Z,53.57
2023-10-07T14:44:52.596Z,53.92
2023-10-07T14:47:56.652Z,53.94
2023-10-07T14:51:05.450Z,54.81
2023-10-07T14:54:09.607Z,54.31
2023-10-07T14:57:18.936Z,54.92
2023-10-07T15:00:23.299Z,55.06
2023-10-07T15:03:29.066Z,55.10
2023-10-07T15:06:34.897Z,56.23
2023-10-07T15:09:38.829Z,56.04
2023-10-07T15:12:43.578Z,56.49
2023-10-07T15:15:48.412Z,56.41
2023-10-07T15:18:53.956Z,56.22
2023-10-07T15:21:58.515Z,56.25
2023-10-07T15:25:02.449Z,56.61
2023-10-07T15:28:07.454Z,56.53
2023-10-07T15:31:12.364Z,56.70
2023-10-07T15:34:16.351Z,57.04
2023-10-07T15:37:20.333Z,57.53
2023-10-07T15:40:24.403Z,57.50
2023-10-07T15:43:28.362Z,57.75
2023-10-07T15:46:32.989Z,57.95
2023-10-07T15:49:37.409Z,58.32
2023-10-07T15:52:41.390Z,58.15
2023-10-07T15:55:45.421Z,58.25
2023-10-07T15:58:49.845Z,58.30
2023-10-07T16:01:53.986Z,58.89
2023-10-07T16:04:58.261Z,58.90
2023-10-07T16:08:02.402Z,58.75
2023-10-07T16:11:07.645Z,58.80
2023-10-07T16:14:11.841Z,58.95
2023-10-07T16:17:15.886Z,59.32
2023-10-07T16:20:20.553Z,59.54
2023-10-07T16:23:24.838Z,59.63
2023-10-07T16:26:28.957Z,59.91
2023-10-07T16:29:32.913Z,59.96
2023-10-07T16:32:38.538Z,59.99
2023-10-07T16:35:42.584Z,60.18
2023-10-07T16:38:46.652Z,60.21
2023-10-07T16:41:54.534Z,60.40
2023-10-07T16:44:58.958Z,60.84
2023-10-07T16:48:04.840Z,60.97
2023-10-07T16:51:11.417Z,60.91
2023-10-07T16:54:15.500Z,60.96
2023-10-07T16:57:19.459Z,60.97
2023-10-07T17:00:23.837Z,61.14
2023-10-07T17:03:28.398Z,61.10
2023-10-07T17:06:32.491Z,61.15
2023-10-07T17:09:36.466Z,61.20
2023-10-07T17:12:40.399Z,61.35
2023-10-07T17:15:45.027Z,62.19
2023-10-07T17:18:51.506Z,62.26
2023-10-07T17:21:56.250Z,62.33
2023-10-07T17:25:00.361Z,62.30
2023-10-07T17:28:05.005Z,62.17
2023-10-07T17:31:12.194Z,62.23
2023-10-07T17:34:16.304Z,62.25
2023-10-07T17:37:20.229Z,62.46
2023-10-07T17:40:24.352Z,62.38
2023-10-07T17:43:28.530Z,62.10
2023-10-07T17:46:32.432Z,61.66
2023-10-07T17:49:36.360Z,61.25
2023-10-07T17:52:40.777Z,61.22
2023-10-07T17:55:46.660Z,61.29
2023-10-07T17:58:51.279Z,61.50
2023-10-07T18:01:55.244Z,62.02
2023-10-07T18:05:00.158Z,63.29
2023-10-07T18:08:04.841Z,63.36
2023-10-07T18:11:08.869Z,63.98
2023-10-07T18:14:13.336Z,64.72
2023-10-07T18:17:17.367Z,66.16
2023-10-07T18:20:21.914Z,65.59
2023-10-07T18:23:27.091Z,65.92
2023-10-07T18:26:31.184Z,66.61
2023-10-07T18:29:35.262Z,66.65
2023-10-07T18:32:39.990Z,67.27
2023-10-07T18:35:44.188Z,67.46
2023-10-07T18:38:48.181Z,67.37
2023-10-07T18:41:52.784Z,67.74
2023-10-07T18:44:56.738Z,68.63
2023-10-07T18:48:00.793Z,69.54
2023-10-07T18:51:08.280Z,70.55
2023-10-07T18:54:12.422Z,70.69
2023-10-07T18:57:16.479Z,71.33
2023-10-07T19:00:20.930Z,71.93
2023-10-07T19:03:24.974Z,71.49
2023-10-07T19:06:29.946Z,71.74
2023-10-07T19:09:34.984Z,72.70
2023-10-07T19:12:39.363Z,74.68
2023-10-07T19:15:46.817Z,75.32
2023-10-07T19:18:51.516Z,75.68
2023-10-07T19:21:57.860Z,75.06
2023-10-07T19:25:01.783Z,74.58
2023-10-07T19:28:06.819Z,74.22
2023-10-07T19:31:14.054Z,74.09
2023-10-07T19:34:18.379Z,73.73
2023-10-07T19:37:22.249Z,73.22
2023-10-07T19:40:26.220Z,73.20
2023-10-07T19:43:30.110Z,72.83
2023-10-07T19:46:34.005Z,72.98
2023-10-07T19:49:38.736Z,73.08
2023-10-07T19:52:42.802Z,73.14
2023-10-07T19:55:46.723Z,73.08
2023-10-07T19:58:51.019Z,73.10
2023-10-07T20:01:56.233Z,73.03
2023-10-07T20:05:00.308Z,72.96
2023-10-07T20:08:04.905Z,72.94
2023-10-07T20:11:10.564Z,72.98
2023-10-07T20:14:16.341Z,72.93
2023-10-07T20:17:20.500Z,72.84
2023-10-07T20:20:24.757Z,72.82
2023-10-07T20:23:29.734Z,72.83
2023-10-07T20:26:33.733Z,72.81
2023-10-07T20:29:37.835Z,72.69
2023-10-07T20:32:42.007Z,72.57
2023-10-07T20:35:46.075Z,72.39
2023-10-07T20:38:52.575Z,72.06
2023-10-07T20:41:56.617Z,71.95
2023-10-07T20:45:01.104Z,71.93
2023-10-07T20:48:06.181Z,71.79
2023-10-07T20:51:11.815Z,71.88
2023-10-07T20:54:16.168Z,71.96
2023-10-07T20:57:20.243Z,71.74
2023-10-07T21:00:24.621Z,71.72
2023-10-07T21:03:28.988Z,71.99
2023-10-07T21:06:33.276Z,71.84
2023-10-07T21:09:37.307Z,71.83
2023-10-07T21:12:41.181Z,71.82
2023-10-07T21:15:45.208Z,71.67
2023-10-07T21:18:49.155Z,71.97
2023-10-07T21:21:53.270Z,72.10
2023-10-07T21:24:57.981Z,72.17
2023-10-07T21:28:01.929Z,72.14
2023-10-07T21:31:06.380Z,72.08
2023-10-07T21:34:11.390Z,71.84
2023-10-07T21:37:15.520Z,71.34
2023-10-07T21:40:19.494Z,71.35
2023-10-07T21:43:23.468Z,71.57
2023-10-07T21:46:27.479Z,71.59
2023-10-07T21:49:31.461Z,71.54
2023-10-07T21:52:35.440Z,71.51
2023-10-07T21:55:39.538Z,71.44
2023-10-07T21:58:43.986Z,71.11
2023-10-07T22:01:47.976Z,70.48
2023-10-07T22:04:52.043Z,70.09
2023-10-07T22:07:57.614Z,69.65
2023-10-07T22:11:01.868Z,69.51
2023-10-07T22:14:06.546Z,69.54
2023-10-07T22:17:10.618Z,69.71
2023-10-07T22:20:15.970Z,69.43
2023-10-07T22:23:22.435Z,69.09
2023-10-07T22:26:26.732Z,68.75
2023-10-07T22:29:33.112Z,68.77
2023-10-07T22:32:38.214Z,68.59
2023-10-07T22:35:42.721Z,68.30
2023-10-07T22:38:54.773Z,68.59
2023-10-07T22:42:01.590Z,68.98
2023-10-07T22:45:12.344Z,68.69
2023-10-07T22:48:28.857Z,68.99
2023-10-07T22:51:33.579Z,68.97
2023-10-07T22:54:44.577Z,67.84
2023-10-07T22:57:48.445Z,66.52
2023-10-07T23:00:52.483Z,67.94
2023-10-07T23:04:10.921Z,68.43
2023-10-07T23:07:24.437Z,68.10
2023-10-07T23:10:36.572Z,67.45
2023-10-07T23:13:40.458Z,66.97
2023-10-07T23:16:47.774Z,66.84
2023-10-07T23:19:52.085Z,66.84
2023-10-07T23:22:57.835Z,66.81
2023-10-07T23:26:02.007Z,66.90
2023-10-07T23:29:07.539Z,66.91
2023-10-07T23:32:16.406Z,66.85
2023-10-07T23:35:24.656Z,66.67
2023-10-07T23:38:28.769Z,66.52
2023-10-07T23:41:32.895Z,66.54
2023-10-07T23:44:37.685Z,66.26
2023-10-07T23:47:42.401Z,66.11
2023-10-07T23:50:48.708Z,65.92
2023-10-07T23:53:53.358Z,65.69
2023-10-07T23:57:01.897Z,65.35
